createdAt,value
2018-04-10T00:01:37.405Z,99921.30
2018-04-10T00:04:03.176Z,99923.98
2018-04-10T00:06:28.971Z,99925.79
2018-04-10T00:08:54.772Z,99925.55
2018-04-10T00:11:20.560Z,99921.12
2018-04-10T00:13:46.340Z,99914.34
2018-04-10T00:16:19.444Z,99914.77
2018-04-10T00:18:45.250Z,99912.92
2018-04-10T00:21:11.044Z,99914.99
2018-04-10T00:23:36.841Z,99913.58
2018-04-10T00:26:02.645Z,99917.53
2018-04-10T00:28:28.460Z,99909.83
2018-04-10T00:30:54.268Z,99907.36
2018-04-10T00:33:20.057Z,99904.61
2018-04-10T00:35:46.209Z,99907.48
2018-04-10T00:38:12.001Z,99903.81
2018-04-10T00:40:37.806Z,99906.49
2018-04-10T00:43:03.856Z,99905.88
2018-04-10T00:45:29.667Z,99905.64
2018-04-10T00:47:55.459Z,99904.63
2018-04-10T00:50:21.269Z,99907.14
2018-04-10T00:52:47.079Z,99902.70
2018-04-10T00:55:12.866Z,99899.01
2018-04-10T00:57:38.654Z,99897.22
2018-04-10T01:00:04.465Z,99903.88
2018-04-10T01:02:30.258Z,99899.33
2018-04-10T01:04:56.049Z,99906.38
2018-04-10T01:07:21.868Z,99897.48
2018-04-10T01:09:47.666Z,99898.39
2018-04-10T01:12:13.465Z,99897.61
2018-04-10T01:14:39.272Z,99897.08
2018-04-10T01:17:05.081Z,99899.38
2018-04-10T01:19:30.880Z,99902.33
2018-04-10T01:21:56.925Z,99903.63
2018-04-10T01:24:22.725Z,99906.09
2018-04-10T01:26:48.522Z,99909.17
2018-04-10T01:29:14.339Z,99895.92
2018-04-10T01:31:40.121Z,99903.46
2018-04-10T01:34:05.897Z,99897.36
2018-04-10T01:36:31.706Z,99898.64
2018-04-10T01:38:57.548Z,99905.73
2018-04-10T01:41:23.333Z,99904.70
2018-04-10T01:43:49.134Z,99909.20
2018-04-10T01:46:14.959Z,99902.99
2018-04-10T01:48:40.738Z,99902.17
2018-04-10T01:51:06.534Z,99908.44
2018-04-10T01:53:32.343Z,99908.46
2018-04-10T01:55:58.124Z,99913.09
2018-04-10T01:58:23.911Z,99911.90
2018-04-10T02:00:49.897Z,99913.04
2018-04-10T02:03:15.694Z,99916.55
2018-04-10T02:05:41.493Z,99918.18
2018-04-10T02:08:07.317Z,99917.87
2018-04-10T02:13:23.657Z,99925.61
2018-04-10T02:15:49.496Z,99918.58
2018-04-10T02:18:15.313Z,99918.94
2018-04-10T02:20:41.178Z,99918.14
2018-04-10T02:23:07.013Z,99890.66
2018-04-10T02:25:32.830Z,99919.37
2018-04-10T02:27:58.660Z,99917.70
2018-04-10T02:30:24.484Z,99918.30
2018-04-10T02:32:50.300Z,99925.46
2018-04-10T02:35:16.253Z,99922.41
2018-04-10T02:37:42.102Z,99919.33
2018-04-10T02:40:07.945Z,99919.91
2018-04-10T02:42:33.981Z,99922.11
2018-04-10T02:44:59.832Z,99923.52
2018-04-10T02:47:25.665Z,99918.94
2018-04-10T02:49:51.497Z,99921.20
2018-04-10T02:52:17.324Z,99922.40
2018-04-10T02:54:43.139Z,99924.39
2018-04-10T02:57:08.978Z,99923.32
2018-04-10T02:59:34.784Z,99927.61
2018-04-10T03:02:00.599Z,99924.52
2018-04-10T03:04:26.443Z,99920.02
2018-04-10T03:06:52.254Z,99920.95
2018-04-10T03:09:18.063Z,99922.21
2018-04-10T03:11:44.233Z,99926.80
2018-04-10T03:14:10.048Z,99923.93
2018-04-10T03:16:35.863Z,99919.64
2018-04-10T03:19:01.719Z,99926.86
2018-04-10T03:21:27.540Z,99921.50
2018-04-10T03:23:53.347Z,99917.30
2018-04-10T03:26:19.173Z,99919.23
2018-04-10T03:28:45.012Z,99919.77
2018-04-10T03:31:10.848Z,99915.78
2018-04-10T03:33:36.666Z,99921.30
2018-04-10T03:36:02.505Z,99923.31
2018-04-10T03:38:28.440Z,99919.55
2018-04-10T03:40:54.287Z,99923.40
2018-04-10T03:43:20.109Z,99923.06
2018-04-10T03:45:45.961Z,99923.02
2018-04-10T03:48:11.784Z,99922.18
2018-04-10T03:50:37.610Z,99920.41
2018-04-10T03:53:03.708Z,99928.03
2018-04-10T03:55:29.627Z,99932.09
2018-04-10T03:57:55.477Z,99930.67
2018-04-10T04:00:21.356Z,99923.75
2018-04-10T04:02:48.247Z,99927.38
2018-04-10T04:05:14.152Z,99931.03
2018-04-10T04:07:39.998Z,99929.86
2018-04-10T04:10:05.869Z,99939.65
2018-04-10T04:12:31.773Z,99941.20
2018-04-10T04:14:57.627Z,99941.17
2018-04-10T04:17:32.555Z,99944.37
2018-04-10T04:20:10.792Z,99946.64
2018-04-10T04:22:38.496Z,99955.25
2018-04-10T04:25:04.384Z,99945.13
2018-04-10T04:27:30.255Z,99954.92
2018-04-10T04:29:56.973Z,99953.07
2018-04-10T04:32:22.869Z,99953.16
2018-04-10T04:34:48.733Z,99952.21
2018-04-10T04:37:14.590Z,99950.13
2018-04-10T04:39:40.482Z,99959.13
2018-04-10T04:42:06.369Z,99947.33
2018-04-10T04:44:32.225Z,99947.45
2018-04-10T04:46:58.112Z,99957.70
2018-04-10T04:49:24.001Z,99950.98
2018-04-10T04:51:49.870Z,99954.52
2018-04-10T04:54:15.777Z,99950.98
2018-04-10T04:56:41.628Z,99953.54
2018-04-10T04:59:07.507Z,99947.64
2018-04-10T05:01:33.404Z,99949.61
2018-04-10T05:03:59.295Z,99949.16
2018-04-10T05:06:25.176Z,99948.70
2018-04-10T05:08:51.082Z,99952.23
2018-04-10T05:11:16.975Z,99952.69
2018-04-10T05:13:42.828Z,99956.28
2018-04-10T05:16:08.715Z,99957.24
2018-04-10T05:18:34.578Z,99962.45
2018-04-10T05:21:00.446Z,99962.31
2018-04-10T05:23:26.315Z,99957.14
2018-04-10T05:25:52.187Z,99966.06
2018-04-10T05:28:18.044Z,99967.12
2018-04-10T05:30:43.919Z,99968.78
2018-04-10T05:33:09.783Z,99963.03
2018-04-10T05:35:35.666Z,99970.57
2018-04-10T05:38:01.536Z,99972.84
2018-04-10T05:40:27.396Z,99971.80
2018-04-10T05:42:53.543Z,99977.81
2018-04-10T05:45:19.414Z,99974.08
2018-04-10T05:47:45.275Z,99977.02
2018-04-10T05:50:11.346Z,99976.36
2018-04-10T05:52:37.227Z,99979.66
2018-04-10T05:55:03.092Z,99980.78
2018-04-10T05:57:29.007Z,99986.63
2018-04-10T05:59:54.873Z,99991.88
2018-04-10T06:02:20.727Z,99989.15
2018-04-10T06:04:46.665Z,99989.62
2018-04-10T06:07:12.584Z,99992.49
2018-04-10T06:09:38.436Z,99986.31
2018-04-10T06:12:04.297Z,100000.38
2018-04-10T06:14:30.193Z,100001.83
2018-04-10T06:19:28.880Z,100002.86
2018-04-10T06:21:54.762Z,100006.68
2018-04-10T06:24:20.628Z,100008.80
2018-04-10T06:26:46.492Z,100010.98
2018-04-10T06:29:12.674Z,100009.87
2018-04-10T06:31:38.535Z,100010.62
2018-04-10T06:34:04.392Z,100008.62
2018-04-10T06:36:30.267Z,100017.13
2018-04-10T06:38:56.134Z,100013.30
2018-04-10T06:41:22.053Z,100015.33
2018-04-10T06:43:47.913Z,100019.80
2018-04-10T06:46:13.893Z,100017.02
2018-04-10T06:48:39.753Z,100017.51
2018-04-10T06:51:05.650Z,100027.86
2018-04-10T06:53:31.768Z,100030.31
2018-04-10T06:55:57.620Z,100021.33
2018-04-10T06:58:23.492Z,100021.95
2018-04-10T07:00:49.422Z,100015.57
2018-04-10T07:03:15.318Z,100015.27
2018-04-10T07:05:41.197Z,100018.55
2018-04-10T07:08:07.088Z,100017.17
2018-04-10T07:10:32.963Z,100019.00
2018-04-10T07:12:58.812Z,100027.80
2018-04-10T07:15:24.701Z,100020.56
2018-04-10T07:17:50.578Z,100019.55
2018-04-10T07:20:16.440Z,100023.14
2018-04-10T07:22:42.617Z,100025.89
2018-04-10T07:25:08.409Z,100023.44
2018-04-10T07:27:34.213Z,100027.08
2018-04-10T07:30:00.314Z,100027.96
2018-04-10T07:32:26.165Z,100034.41
2018-04-10T07:34:51.971Z,100033.24
2018-04-10T07:37:17.750Z,100033.87
2018-04-10T07:39:43.622Z,100029.75
2018-04-10T07:42:09.419Z,100025.81
2018-04-10T07:44:35.210Z,100033.95
2018-04-10T07:47:01.011Z,100033.81
2018-04-10T07:49:26.993Z,100026.55
2018-04-10T07:51:52.788Z,100033.27
2018-04-10T07:54:18.587Z,100030.43
2018-04-10T07:56:44.389Z,100034.23
2018-04-10T07:59:10.175Z,100024.37
2018-04-10T08:01:35.997Z,100025.95
2018-04-10T08:04:01.818Z,100031.50
2018-04-10T08:06:27.617Z,100035.25
2018-04-10T08:08:53.437Z,100027.37
2018-04-10T08:11:19.350Z,100030.75
2018-04-10T08:13:45.132Z,100037.66
2018-04-10T08:16:10.950Z,100037.95
2018-04-10T08:18:36.761Z,100044.44
2018-04-10T08:21:02.562Z,100031.41
2018-04-10T08:23:28.364Z,100025.44
2018-04-10T08:25:54.165Z,100022.39
2018-04-10T08:28:19.964Z,100033.75
2018-04-10T08:30:45.762Z,100037.97
2018-04-10T08:33:11.604Z,100043.40
2018-04-10T08:35:37.388Z,100041.98
2018-04-10T08:38:03.204Z,100044.95
2018-04-10T08:40:29.012Z,100045.34
2018-04-10T08:42:54.801Z,100045.39
2018-04-10T08:45:20.630Z,100051.13
2018-04-10T08:47:46.413Z,100050.93
2018-04-10T08:50:12.246Z,100053.33
2018-04-10T08:52:38.359Z,100053.22
2018-04-10T08:55:04.512Z,100063.97
2018-04-10T08:57:30.344Z,100058.54
2018-04-10T08:59:56.153Z,100067.42
2018-04-10T09:02:22.279Z,100057.02
2018-04-10T09:04:48.097Z,100058.03
2018-04-10T09:07:13.922Z,100067.69
2018-04-10T09:09:39.729Z,100062.69
2018-04-10T09:12:05.523Z,100064.03
2018-04-10T09:14:31.357Z,100062.29
2018-04-10T09:16:57.165Z,100054.98
2018-04-10T09:19:22.973Z,100053.23
2018-04-10T09:21:49.326Z,100055.09
2018-04-10T09:24:15.324Z,100061.11
2018-04-10T09:26:41.399Z,100059.33
2018-04-10T09:29:07.249Z,100063.89
2018-04-10T09:31:33.026Z,100065.84
2018-04-10T09:33:58.917Z,100062.42
2018-04-10T09:36:24.718Z,100062.45
2018-04-10T09:38:50.513Z,100069.25
2018-04-10T09:41:16.604Z,100065.81
2018-04-10T09:43:42.474Z,100064.20
2018-04-10T09:46:08.249Z,100062.98
2018-04-10T09:48:34.161Z,100068.34
2018-04-10T09:51:00.214Z,100062.68
2018-04-10T09:53:26.025Z,100065.31
2018-04-10T09:55:51.813Z,100066.98
2018-04-10T09:58:17.608Z,100064.73
2018-04-10T10:00:43.626Z,100066.63
2018-04-10T10:03:09.414Z,100067.08
2018-04-10T10:05:35.352Z,100068.04
2018-04-10T10:08:01.255Z,100073.64
2018-04-10T10:10:27.387Z,100077.91
2018-04-10T10:12:53.261Z,100079.16
2018-04-10T10:15:19.043Z,100068.16
2018-04-10T10:17:44.838Z,100086.33
2018-04-10T10:20:10.650Z,100095.00
2018-04-10T10:22:36.445Z,100095.75
2018-04-10T10:25:02.249Z,100082.31
2018-04-10T10:27:28.073Z,100098.77
2018-04-10T10:29:53.876Z,100098.37
2018-04-10T10:32:19.793Z,100087.92
2018-04-10T10:34:45.739Z,100084.97
2018-04-10T10:37:11.537Z,100081.56
2018-04-10T10:39:37.354Z,100079.33
2018-04-10T10:42:03.164Z,100090.34
2018-04-10T10:44:28.974Z,100088.12
2018-04-10T10:46:55.099Z,100082.62
2018-04-10T10:49:20.898Z,100076.80
2018-04-10T10:51:46.847Z,100075.55
2018-04-10T10:54:12.644Z,100068.13
2018-04-10T10:56:38.453Z,100078.41
2018-04-10T10:59:04.277Z,100078.47
2018-04-10T11:01:30.074Z,100082.95
2018-04-10T11:03:55.867Z,100090.02
2018-04-10T11:06:21.697Z,100088.37
2018-04-10T11:08:47.504Z,100078.48
2018-04-10T11:11:13.327Z,100097.72
2018-04-10T11:13:39.114Z,100087.19
2018-04-10T11:16:04.935Z,100079.75
2018-04-10T11:18:30.741Z,100084.87
2018-04-10T11:20:56.546Z,100089.30
2018-04-10T11:23:22.338Z,100087.87
2018-04-10T11:25:48.153Z,100080.81
2018-04-10T11:28:13.925Z,100096.29
2018-04-10T11:30:39.727Z,100100.12
2018-04-10T11:33:05.547Z,100105.45
2018-04-10T11:35:31.336Z,100101.52
2018-04-10T11:37:57.135Z,100104.77
2018-04-10T11:40:22.944Z,100108.56
2018-04-10T11:42:48.758Z,100116.83
2018-04-10T11:45:14.587Z,100119.14
2018-04-10T11:47:40.398Z,100117.72
2018-04-10T11:50:06.199Z,100121.67
2018-04-10T11:52:31.992Z,100130.80
2018-04-10T11:54:57.780Z,100126.58
2018-04-10T11:57:23.894Z,100131.93
2018-04-10T11:59:49.712Z,100131.48
2018-04-10T12:02:15.505Z,100137.78
2018-04-10T12:04:41.347Z,100136.08
2018-04-10T12:07:07.141Z,100131.64
2018-04-10T12:09:32.941Z,100138.48
2018-04-10T12:11:58.752Z,100136.13
2018-04-10T12:14:24.545Z,100133.40
2018-04-10T12:16:50.354Z,100138.11
2018-04-10T12:19:16.194Z,100142.22
2018-04-10T12:21:41.977Z,100151.31
2018-04-10T12:24:07.757Z,100144.11
2018-04-10T12:26:33.571Z,100143.50
2018-04-10T12:28:59.359Z,100134.56
2018-04-10T12:31:25.163Z,100139.70
2018-04-10T12:33:50.941Z,100124.83
2018-04-10T12:36:16.732Z,100120.27
2018-04-10T12:38:42.553Z,100114.92
2018-04-10T12:41:08.340Z,100108.13
2018-04-10T12:43:34.123Z,100108.52
2018-04-10T12:46:00.121Z,100115.78
2018-04-10T12:48:25.940Z,100108.47
2018-04-10T12:50:51.764Z,100102.84
2018-04-10T12:53:17.858Z,100114.97
2018-04-10T12:55:43.717Z,100124.44
2018-04-10T12:58:09.514Z,100123.36
2018-04-10T13:00:35.312Z,100140.78
2018-04-10T13:03:01.102Z,100148.73
2018-04-10T13:05:26.924Z,100143.96
2018-04-10T13:07:52.716Z,100134.19
2018-04-10T13:10:18.503Z,100123.49
2018-04-10T13:12:44.394Z,100121.23
2018-04-10T13:15:10.187Z,100124.44
2018-04-10T13:17:35.985Z,100124.41
2018-04-10T13:20:01.790Z,100129.91
2018-04-10T13:22:27.661Z,100137.53
2018-04-10T13:24:53.467Z,100142.45
2018-04-10T13:27:19.249Z,100152.17
2018-04-10T13:29:45.029Z,100151.64
2018-04-10T13:32:11.153Z,100155.03
2018-04-10T13:34:36.958Z,100158.11
2018-04-10T13:37:02.790Z,100169.69
2018-04-10T13:39:28.612Z,100164.73
2018-04-10T13:41:54.491Z,100150.22
2018-04-10T13:44:20.286Z,100151.25
2018-04-10T13:46:46.473Z,100145.13
2018-04-10T13:49:12.292Z,100149.35
2018-04-10T13:51:38.522Z,100138.63
2018-04-10T13:54:04.370Z,100143.89
2018-04-10T13:56:30.165Z,100142.14
2018-04-10T13:58:56.011Z,100143.23
2018-04-10T14:01:21.844Z,100142.13
2018-04-10T14:03:47.649Z,100137.00
2018-04-10T14:06:13.463Z,100136.36
2018-04-10T14:08:39.280Z,100141.87
2018-04-10T14:11:05.104Z,100139.30
2018-04-10T14:13:30.936Z,100141.02
2018-04-10T14:15:57.231Z,100139.93
2018-04-10T14:18:23.046Z,100141.31
2018-04-10T14:20:48.852Z,100140.00
2018-04-10T14:23:15.393Z,100124.75
2018-04-10T14:25:41.190Z,100140.65
2018-04-10T14:28:07.005Z,100151.95
2018-04-10T14:30:32.904Z,100144.13
2018-04-10T14:32:58.701Z,100145.97
2018-04-10T14:35:24.525Z,100142.23
2018-04-10T14:37:50.396Z,100140.71
2018-04-10T14:40:17.009Z,100135.02
2018-04-10T14:42:42.885Z,100146.69
2018-04-10T14:45:08.746Z,100139.80
2018-04-10T14:47:34.592Z,100145.06
2018-04-10T14:50:00.381Z,100142.18
2018-04-10T14:52:26.241Z,100150.19
2018-04-10T14:54:52.060Z,100152.64
2018-04-10T14:57:17.868Z,100150.31
2018-04-10T14:59:43.693Z,100151.91
2018-04-10T15:02:09.517Z,100154.23
2018-04-10T15:04:35.348Z,100152.19
2018-04-10T15:07:01.261Z,100162.03
2018-04-10T15:09:27.077Z,100151.49
2018-04-10T15:11:52.914Z,100150.99
2018-04-10T15:14:18.733Z,100139.94
2018-04-10T15:16:45.137Z,100145.00
2018-04-10T15:19:11.039Z,100150.89
2018-04-10T15:21:36.933Z,100151.11
2018-04-10T15:24:02.807Z,100157.09
2018-04-10T15:26:28.625Z,100155.23
2018-04-10T15:28:54.483Z,100152.00
2018-04-10T15:31:20.330Z,100155.83
2018-04-10T15:33:46.180Z,100147.03
2018-04-10T15:36:11.977Z,100158.47
2018-04-10T15:38:40.050Z,100156.44
2018-04-10T15:41:05.885Z,100157.94
2018-04-10T15:43:32.614Z,100162.14
2018-04-10T15:45:58.450Z,100168.50
2018-04-10T15:48:24.283Z,100161.86
2018-04-10T15:50:50.097Z,100156.79
2018-04-10T15:53:15.903Z,100167.93
2018-04-10T15:55:41.910Z,100158.55
2018-04-10T15:58:07.734Z,100167.42
2018-04-10T16:00:33.567Z,100151.48
2018-04-10T16:02:59.419Z,100155.27
2018-04-10T16:05:25.616Z,100158.58
2018-04-10T16:07:51.606Z,100148.09
2018-04-10T16:10:17.607Z,100151.98
2018-04-10T16:12:43.622Z,100161.05
2018-04-10T16:15:09.482Z,100152.95
2018-04-10T16:17:35.300Z,100168.50
2018-04-10T16:20:02.054Z,100165.91
2018-04-10T16:22:27.904Z,100160.04
2018-04-10T16:24:53.724Z,100165.98
2018-04-10T16:27:19.549Z,100175.93
2018-04-10T16:29:45.399Z,100176.41
2018-04-10T16:32:12.121Z,100174.50
2018-04-10T16:34:37.943Z,100179.73
2018-04-10T16:37:04.037Z,100169.92
2018-04-10T16:39:29.853Z,100179.41
2018-04-10T16:41:55.694Z,100180.81
2018-04-10T16:44:21.816Z,100188.55
2018-04-10T16:46:47.610Z,100186.35
2018-04-10T16:49:13.408Z,100185.52
2018-04-10T16:51:39.257Z,100189.63
2018-04-10T16:54:05.069Z,100197.09
2018-04-10T16:59:03.529Z,100201.67
2018-04-10T17:01:29.344Z,100209.56
2018-04-10T17:03:55.183Z,100203.78
2018-04-10T17:06:21.000Z,100198.90
2018-04-10T17:08:46.986Z,100193.51
2018-04-10T17:11:13.482Z,100199.79
2018-04-10T17:13:39.303Z,100206.05
2018-04-10T17:16:05.110Z,100211.24
2018-04-10T17:18:30.968Z,100212.70
2018-04-10T17:20:56.897Z,100207.47
2018-04-10T17:23:23.043Z,100211.20
2018-04-10T17:25:48.870Z,100196.36
2018-04-10T17:28:14.663Z,100208.47
2018-04-10T17:30:41.634Z,100214.05
2018-04-10T17:33:07.471Z,100218.16
2018-04-10T17:35:33.469Z,100219.92
2018-04-10T17:38:00.201Z,100210.11
2018-04-10T17:40:26.086Z,100213.25
2018-04-10T17:42:51.974Z,100224.25
2018-04-10T17:45:18.078Z,100225.96
2018-04-10T17:47:43.876Z,100234.99
2018-04-10T17:50:10.032Z,100222.88
2018-04-10T17:52:35.845Z,100224.27
2018-04-10T17:55:01.688Z,100235.15
2018-04-10T17:57:27.534Z,100234.92
2018-04-10T17:59:53.347Z,100230.01
2018-04-10T18:02:20.199Z,100235.18
2018-04-10T18:04:46.017Z,100257.35
2018-04-10T18:07:11.828Z,100243.33
2018-04-10T18:09:37.706Z,100252.25
2018-04-10T18:12:03.548Z,100252.67
2018-04-10T18:14:30.056Z,100252.25
2018-04-10T18:16:55.854Z,100254.56
2018-04-10T18:19:22.347Z,100258.17
2018-04-10T18:21:48.162Z,100265.06
2018-04-10T18:24:14.015Z,100271.04
2018-04-10T18:26:39.838Z,100278.10
2018-04-10T18:29:05.811Z,100276.69
2018-04-10T18:31:31.620Z,100279.01
2018-04-10T18:33:57.438Z,100283.69
2018-04-10T18:36:23.277Z,100283.14
2018-04-10T18:38:49.258Z,100290.11
2018-04-10T18:41:15.076Z,100298.67
2018-04-10T18:43:40.996Z,100296.27
2018-04-10T18:46:06.825Z,100306.84
2018-04-10T18:48:32.662Z,100298.75
2018-04-10T18:50:58.716Z,100309.61
2018-04-10T18:53:24.520Z,100306.25
2018-04-10T18:55:50.304Z,100308.18
2018-04-10T18:58:16.247Z,100308.88
2018-04-10T19:00:42.056Z,100317.09
2018-04-10T19:03:07.858Z,100315.28
2018-04-10T19:05:34.178Z,100325.45
2018-04-10T19:07:59.993Z,100323.03
2018-04-10T19:10:25.792Z,100322.04
2018-04-10T19:12:51.637Z,100331.27
2018-04-10T19:15:17.432Z,100324.33
2018-04-10T19:17:43.237Z,100327.41
2018-04-10T19:20:09.306Z,100334.85
2018-04-10T19:22:35.354Z,100334.17
2018-04-10T19:25:01.308Z,100329.79
2018-04-10T19:27:27.250Z,100332.38
2018-04-10T19:29:53.113Z,100331.13
2018-04-10T19:32:18.923Z,100326.74
2018-04-10T19:34:44.893Z,100337.45
2018-04-10T19:37:10.719Z,100334.44
2018-04-10T19:39:36.537Z,100324.72
2018-04-10T19:42:02.516Z,100327.09
2018-04-10T19:44:28.347Z,100331.39
2018-04-10T19:46:54.238Z,100325.97
2018-04-10T19:49:20.391Z,100328.67
2018-04-10T19:51:46.211Z,100333.45
2018-04-10T19:54:12.059Z,100331.46
2018-04-10T19:56:37.990Z,100292.61
2018-04-10T19:59:03.822Z,100336.38
2018-04-10T20:01:29.630Z,100331.22
2018-04-10T20:03:55.597Z,100336.77
2018-04-10T20:06:21.431Z,100334.88
2018-04-10T20:08:47.316Z,100342.45
2018-04-10T20:11:13.225Z,100338.87
2018-04-10T20:13:39.061Z,100341.92
2018-04-10T20:16:04.980Z,100342.55
2018-04-10T20:18:30.805Z,100334.14
2018-04-10T20:20:56.678Z,100341.30
2018-04-10T20:23:22.501Z,100337.59
2018-04-10T20:25:48.297Z,100340.88
2018-04-10T20:28:14.100Z,100340.98
2018-04-10T20:30:39.937Z,100341.58
2018-04-10T20:33:05.740Z,100339.75
2018-04-10T20:35:31.613Z,100340.12
2018-04-10T20:37:57.468Z,100346.63
2018-04-10T20:40:23.261Z,100348.69
2018-04-10T20:42:49.069Z,100344.48
2018-04-10T20:45:14.901Z,100348.64
2018-04-10T20:47:40.801Z,100349.48
2018-04-10T20:50:06.660Z,100349.56
2018-04-10T20:52:32.570Z,100353.95
2018-04-10T20:54:58.375Z,100354.90
2018-04-10T20:57:24.192Z,100353.87
2018-04-10T20:59:50.762Z,100356.44
2018-04-10T21:02:16.560Z,100358.41
2018-04-10T21:04:42.369Z,100363.29
2018-04-10T21:07:08.208Z,100372.16
2018-04-10T21:09:34.001Z,100379.70
2018-04-10T21:11:59.829Z,100381.33
2018-04-10T21:14:26.171Z,100382.05
2018-04-10T21:16:51.978Z,100379.99
2018-04-10T21:19:17.844Z,100385.47
2018-04-10T21:21:43.657Z,100391.19
2018-04-10T21:24:09.451Z,100395.41
2018-04-10T21:26:35.237Z,100388.95
2018-04-10T21:29:01.053Z,100392.45
2018-04-10T21:31:26.874Z,100390.22
2018-04-10T21:33:52.714Z,100389.45
2018-04-10T21:36:18.546Z,100391.13
2018-04-10T21:38:44.326Z,100391.19
2018-04-10T21:41:10.121Z,100385.11
2018-04-10T21:43:35.945Z,100389.45
2018-04-10T21:46:01.724Z,100398.87
2018-04-10T21:48:27.497Z,100398.66
2018-04-10T21:50:53.297Z,100397.85
2018-04-10T21:53:19.293Z,100398.88
2018-04-10T21:55:45.241Z,100401.10
2018-04-10T21:58:11.039Z,100401.38
2018-04-10T22:00:37.150Z,100408.39
2018-04-10T22:03:02.960Z,100399.12
2018-04-10T22:05:28.756Z,100392.87
2018-04-10T22:07:54.546Z,100399.97
2018-04-10T22:10:20.360Z,100399.47
2018-04-10T22:12:46.197Z,100404.52
2018-04-10T22:15:12.200Z,100399.77
2018-04-10T22:17:38.033Z,100407.02
2018-04-10T22:20:03.829Z,100405.17
2018-04-10T22:22:29.616Z,100405.83
2018-04-10T22:24:55.768Z,100411.75
2018-04-10T22:27:21.664Z,100407.17
2018-04-10T22:29:47.472Z,100411.56
2018-04-10T22:32:13.314Z,100412.88
2018-04-10T22:34:39.085Z,100417.94
2018-04-10T22:37:05.152Z,100418.23
2018-04-10T22:39:30.978Z,100426.87
2018-04-10T22:41:56.782Z,100428.46
2018-04-10T22:44:22.582Z,100429.53
2018-04-10T22:46:48.405Z,100429.12
2018-04-10T22:49:14.217Z,100429.28
2018-04-10T22:51:40.041Z,100436.52
2018-04-10T22:54:06.081Z,100432.98
2018-04-10T22:56:31.882Z,100432.98
2018-04-10T22:58:57.674Z,100433.50
2018-04-10T23:01:23.491Z,100434.95
2018-04-10T23:03:49.436Z,100433.92
2018-04-10T23:06:15.245Z,100430.60
2018-04-10T23:08:41.058Z,100429.02
2018-04-10T23:11:06.849Z,100437.30
2018-04-10T23:13:32.653Z,100434.01
2018-04-10T23:15:58.560Z,100435.09
2018-04-10T23:18:24.377Z,100440.11
2018-04-10T23:20:50.182Z,100444.13
2018-04-10T23:23:15.980Z,100439.66
2018-04-10T23:25:42.121Z,100440.22
2018-04-10T23:28:07.927Z,100444.19
2018-04-10T23:30:33.742Z,100435.83
2018-04-10T23:32:59.853Z,100443.96
2018-04-10T23:35:25.634Z,100444.11
2018-04-10T23:37:51.420Z,100443.62
2018-04-10T23:40:17.222Z,100436.70
2018-04-10T23:42:43.061Z,100435.09
2018-04-10T23:45:08.894Z,100446.58
2018-04-10T23:47:34.686Z,100443.66
2018-04-10T23:50:00.495Z,100443.45
2018-04-10T23:52:26.288Z,100442.51
2018-04-10T23:54:52.081Z,100448.89
2018-04-10T23:57:17.881Z,100450.80
2018-04-10T23:59:43.681Z,100442.66
